sensor_id;sensor_type;location;lat;lon;timestamp;pressure;altitude;pressure_sealevel;temperature;humidity
55347;BME280;41218;55.700;38.270;2023-10-08T00:03:24;96481.16;;;6.84;70.83
55347;BME280;41218;55.700;38.270;2023-10-08T00:08:29;96483.63;;;6.78;70.96
55347;BME280;41218;55.700;38.270;2023-10-08T00:13:30;96479.72;;;6.79;71.10
55347;BME280;41218;55.700;38.270;2023-10-08T00:18:30;96475.22;;;6.69;71.02
55347;BME280;41218;55.700;38.270;2023-10-08T00:23:33;96482.53;;;6.76;70.93
55347;BME280;41218;55.700;38.270;2023-10-08T00:28:35;96476.41;;;6.68;71.03
55347;BME280;41218;55.700;38.270;2023-10-08T00:33:36;96493.56;;;6.72;70.59
55347;BME280;41218;55.700;38.270;2023-10-08T00:38:36;96492.03;;;6.71;70.73
55347;BME280;41218;55.700;38.270;2023-10-08T00:43:42;96486.63;;;6.68;71.03
55347;BME280;41218;55.700;38.270;2023-10-08T00:48:46;96481.13;;;6.68;70.66
55347;BME280;41218;55.700;38.270;2023-10-08T00:53:56;96491.53;;;6.76;70.57
55347;BME280;41218;55.700;38.270;2023-10-08T00:59:00;96484.34;;;6.62;70.21
55347;BME280;41218;55.700;38.270;2023-10-08T01:04:02;96489.94;;;6.59;70.11
55347;BME280;41218;55.700;38.270;2023-10-08T01:09:11;96465.78;;;6.50;70.03
55347;BME280;41218;55.700;38.270;2023-10-08T01:14:18;96488.03;;;6.56;70.10
55347;BME280;41218;55.700;38.270;2023-10-08T01:19:21;96486.91;;;6.53;69.83
55347;BME280;41218;55.700;38.270;2023-10-08T01:24:21;96482.94;;;6.54;69.55
55347;BME280;41218;55.700;38.270;2023-10-08T01:29:24;96476.06;;;6.46;69.06
55347;BME280;41218;55.700;38.270;2023-10-08T01:34:28;96482.31;;;6.47;68.72
55347;BME280;41218;55.700;38.270;2023-10-08T01:39:31;96471.78;;;6.45;68.33
55347;BME280;41218;55.700;38.270;2023-10-08T01:44:32;96470.56;;;6.46;68.62
55347;BME280;41218;55.700;38.270;2023-10-08T01:49:35;96464.38;;;6.42;67.91
55347;BME280;41218;55.700;38.270;2023-10-08T01:54:37;96460.09;;;6.41;67.60
55347;BME280;41218;55.700;38.270;2023-10-08T01:59:38;96488.38;;;6.38;67.35
55347;BME280;41218;55.700;38.270;2023-10-08T02:04:39;96480.34;;;6.27;67.37
55347;BME280;41218;55.700;38.270;2023-10-08T02:09:40;96485.97;;;6.20;67.78
55347;BME280;41218;55.700;38.270;2023-10-08T02:14:41;96478.28;;;6.11;67.85
55347;BME280;41218;55.700;38.270;2023-10-08T02:19:42;96483.00;;;6.11;68.17
55347;BME280;41218;55.700;38.270;2023-10-08T02:24:42;96483.47;;;6.06;68.27
55347;BME280;41218;55.700;38.270;2023-10-08T02:29:43;96485.03;;;6.07;68.34
55347;BME280;41218;55.700;38.270;2023-10-08T02:34:44;96494.44;;;6.06;68.06
55347;BME280;41218;55.700;38.270;2023-10-08T02:39:45;96511.59;;;6.10;68.24
55347;BME280;41218;55.700;38.270;2023-10-08T02:44:45;96499.28;;;5.98;68.23
55347;BME280;41218;55.700;38.270;2023-10-08T02:49:46;96502.38;;;6.00;68.55
55347;BME280;41218;55.700;38.270;2023-10-08T02:54:50;96497.78;;;5.93;68.74
55347;BME280;41218;55.700;38.270;2023-10-08T02:59:53;96497.06;;;5.89;68.58
55347;BME280;41218;55.700;38.270;2023-10-08T03:04:54;96502.94;;;5.88;68.70
55347;BME280;41218;55.700;38.270;2023-10-08T03:09:54;96495.69;;;5.77;68.59
55347;BME280;41218;55.700;38.270;2023-10-08T03:15:06;96488.31;;;5.74;68.69
55347;BME280;41218;55.700;38.270;2023-10-08T03:20:27;96470.09;;;5.64;68.79
55347;BME280;41218;55.700;38.270;2023-10-08T03:25:29;96472.88;;;5.60;68.86
55347;BME280;41218;55.700;38.270;2023-10-08T03:30:30;96499.44;;;5.63;68.45
55347;BME280;41218;55.700;38.270;2023-10-08T03:35:33;96490.94;;;5.58;68.48
55347;BME280;41218;55.700;38.270;2023-10-08T03:40:37;96507.38;;;5.58;68.82
55347;BME280;41218;55.700;38.270;2023-10-08T03:45:43;96482.06;;;5.50;68.40
55347;BME280;41218;55.700;38.270;2023-10-08T03:50:59;96488.72;;;5.49;68.39
55347;BME280;41218;55.700;38.270;2023-10-08T03:56:09;96502.00;;;5.51;68.96
55347;BME280;41218;55.700;38.270;2023-10-08T04:01:13;96478.34;;;5.37;68.78
55347;BME280;41218;55.700;38.270;2023-10-08T04:06:24;96475.19;;;5.38;68.83
55347;BME280;41218;55.700;38.270;2023-10-08T04:11:51;96492.28;;;5.46;68.49
55347;BME280;41218;55.700;38.270;2023-10-08T04:16:54;96474.84;;;5.36;68.62
55347;BME280;41218;55.700;38.270;2023-10-08T04:21:54;96487.00;;;5.35;68.61
55347;BME280;41218;55.700;38.270;2023-10-08T04:26:56;96483.00;;;5.40;68.52
55347;BME280;41218;55.700;38.270;2023-10-08T04:32:00;96505.63;;;5.44;68.64
55347;BME280;41218;55.700;38.270;2023-10-08T04:37:23;96484.84;;;5.47;68.54
55347;BME280;41218;55.700;38.270;2023-10-08T04:42:32;96464.06;;;5.26;68.70
55347;BME280;41218;55.700;38.270;2023-10-08T04:47:32;96488.06;;;5.41;68.53
55347;BME280;41218;55.700;38.270;2023-10-08T04:52:34;96487.28;;;5.41;68.21
55347;BME280;41218;55.700;38.270;2023-10-08T04:57:46;96488.78;;;5.46;68.27
55347;BME280;41218;55.700;38.270;2023-10-08T05:02:49;96495.94;;;5.39;68.38
55347;BME280;41218;55.700;38.270;2023-10-08T05:07:50;96517.00;;;5.42;67.88
55347;BME280;41218;55.700;38.270;2023-10-08T05:12:52;96511.56;;;5.39;68.43
55347;BME280;41218;55.700;38.270;2023-10-08T05:18:16;96503.78;;;5.37;67.94
55347;BME280;41218;55.700;38.270;2023-10-08T05:23:22;96529.59;;;5.36;67.86
55347;BME280;41218;55.700;38.270;2023-10-08T05:28:29;96522.59;;;5.35;67.95
55347;BME280;41218;55.700;38.270;2023-10-08T05:33:31;96519.06;;;5.35;67.97
55347;BME280;41218;55.700;38.270;2023-10-08T05:38:50;96528.06;;;5.35;68.21
55347;BME280;41218;55.700;38.270;2023-10-08T05:44:00;96533.84;;;5.41;68.04
55347;BME280;41218;55.700;38.270;2023-10-08T05:49:19;96531.97;;;5.34;68.03
55347;BME280;41218;55.700;38.270;2023-10-08T05:54:32;96535.75;;;5.44;67.79
55347;BME280;41218;55.700;38.270;2023-10-08T05:59:33;96535.81;;;5.40;67.80
55347;BME280;41218;55.700;38.270;2023-10-08T06:04:53;96539.38;;;5.37;67.57
55347;BME280;41218;55.700;38.270;2023-10-08T06:10:15;96552.19;;;5.44;68.00
55347;BME280;41218;55.700;38.270;2023-10-08T06:15:36;96544.69;;;5.48;67.25
55347;BME280;41218;55.700;38.270;2023-10-08T06:20:49;96537.78;;;5.40;67.17
55347;BME280;41218;55.700;38.270;2023-10-08T06:25:55;96551.00;;;5.45;67.74
55347;BME280;41218;55.700;38.270;2023-10-08T06:31:11;96540.47;;;5.44;67.54
55347;BME280;41218;55.700;38.270;2023-10-08T06:36:11;96548.69;;;5.44;67.31
55347;BME280;41218;55.700;38.270;2023-10-08T06:41:13;96547.53;;;5.41;66.90
55347;BME280;41218;55.700;38.270;2023-10-08T06:46:14;96556.91;;;5.44;66.79
55347;BME280;41218;55.700;38.270;2023-10-08T06:51:15;96557.31;;;5.42;66.72
55347;BME280;41218;55.700;38.270;2023-10-08T06:56:19;96564.75;;;5.41;67.11
55347;BME280;41218;55.700;38.270;2023-10-08T07:01:20;96563.31;;;5.33;67.36
55347;BME280;41218;55.700;38.270;2023-10-08T07:06:39;96559.66;;;5.44;67.10
55347;BME280;41218;55.700;38.270;2023-10-08T07:11:40;96563.50;;;5.46;66.87
55347;BME280;41218;55.700;38.270;2023-10-08T07:16:44;96567.91;;;5.40;66.74
55347;BME280;41218;55.700;38.270;2023-10-08T07:21:47;96570.16;;;5.45;66.50
55347;BME280;41218;55.700;38.270;2023-10-08T07:26:49;96574.84;;;5.48;66.57
55347;BME280;41218;55.700;38.270;2023-10-08T07:31:55;96592.81;;;5.49;66.67
55347;BME280;41218;55.700;38.270;2023-10-08T07:36:56;96577.56;;;5.48;66.21
55347;BME280;41218;55.700;38.270;2023-10-08T07:42:00;96574.84;;;5.48;65.58
55347;BME280;41218;55.700;38.270;2023-10-08T07:47:00;96581.91;;;5.46;65.42
55347;BME280;41218;55.700;38.270;2023-10-08T07:52:01;96581.59;;;5.40;65.39
55347;BME280;41218;55.700;38.270;2023-10-08T07:57:02;96593.59;;;5.50;65.04
55347;BME280;41218;55.700;38.270;2023-10-08T08:02:09;96608.06;;;5.50;65.52
55347;BME280;41218;55.700;38.270;2023-10-08T08:07:13;96604.50;;;5.53;64.82
55347;BME280;41218;55.700;38.270;2023-10-08T08:12:22;96601.81;;;5.50;64.65
55347;BME280;41218;55.700;38.270;2023-10-08T08:17:25;96617.72;;;5.58;65.09
55347;BME280;41218;55.700;38.270;2023-10-08T08:22:26;96619.75;;;5.54;64.42
55347;BME280;41218;55.700;38.270;2023-10-08T08:27:31;96620.47;;;5.58;64.39
55347;BME280;41218;55.700;38.270;2023-10-08T08:32:31;96616.91;;;5.61;64.19
55347;BME280;41218;55.700;38.270;2023-10-08T08:37:32;96626.63;;;5.66;64.06
55347;BME280;41218;55.700;38.270;2023-10-08T08:42:35;96618.88;;;5.61;63.90
55347;BME280;41218;55.700;38.270;2023-10-08T08:47:37;96636.56;;;5.56;63.33
55347;BME280;41218;55.700;38.270;2023-10-08T08:52:39;96633.16;;;5.45;63.91
55347;BME280;41218;55.700;38.270;2023-10-08T08:57:49;96649.53;;;5.52;63.76
55347;BME280;41218;55.700;38.270;2023-10-08T09:02:53;96644.84;;;5.49;63.79
55347;BME280;41218;55.700;38.270;2023-10-08T09:08:03;96644.41;;;5.54;63.90
55347;BME280;41218;55.700;38.270;2023-10-08T09:13:06;96642.03;;;5.56;63.56
55347;BME280;41218;55.700;38.270;2023-10-08T09:18:08;96659.63;;;5.55;63.59
55347;BME280;41218;55.700;38.270;2023-10-08T09:23:14;96646.78;;;5.52;63.54
55347;BME280;41218;55.700;38.270;2023-10-08T09:28:18;96647.16;;;5.54;63.18
55347;BME280;41218;55.700;38.270;2023-10-08T09:33:18;96644.25;;;5.65;63.02
55347;BME280;41218;55.700;38.270;2023-10-08T09:38:20;96668.16;;;5.65;63.29
55347;BME280;41218;55.700;38.270;2023-10-08T09:43:24;96659.88;;;5.68;62.83
55347;BME280;41218;55.700;38.270;2023-10-08T09:48:26;96667.38;;;5.64;62.83
55347;BME280;41218;55.700;38.270;2023-10-08T09:53:43;96662.69;;;5.61;62.29
55347;BME280;41218;55.700;38.270;2023-10-08T09:58:49;96676.03;;;5.59;62.51
55347;BME280;41218;55.700;38.270;2023-10-08T10:03:50;96674.88;;;5.60;62.04
55347;BME280;41218;55.700;38.270;2023-10-08T10:08:52;96699.94;;;5.58;62.13
55347;BME280;41218;55.700;38.270;2023-10-08T10:13:59;96701.59;;;5.49;61.99
55347;BME280;41218;55.700;38.270;2023-10-08T10:19:03;96691.94;;;5.40;62.59
55347;BME280;41218;55.700;38.270;2023-10-08T10:24:04;96694.72;;;5.37;63.14
55347;BME280;41218;55.700;38.270;2023-10-08T10:34:17;96696.59;;;5.44;62.76
55347;BME280;41218;55.700;38.270;2023-10-08T10:39:19;96697.41;;;5.40;63.20
55347;BME280;41218;55.700;38.270;2023-10-08T10:44:28;96702.13;;;5.40;63.57
55347;BME280;41218;55.700;38.270;2023-10-08T10:49:32;96714.16;;;5.46;63.59
55347;BME280;41218;55.700;38.270;2023-10-08T10:54:37;96699.25;;;5.51;63.56
55347;BME280;41218;55.700;38.270;2023-10-08T10:59:37;96700.44;;;5.50;63.38
55347;BME280;41218;55.700;38.270;2023-10-08T11:04:38;96709.84;;;5.49;63.77
55347;BME280;41218;55.700;38.270;2023-10-08T11:09:48;96715.81;;;5.40;63.74
55347;BME280;41218;55.700;38.270;2023-10-08T11:14:49;96724.44;;;5.38;64.19
55347;BME280;41218;55.700;38.270;2023-10-08T11:19:52;96722.91;;;5.37;64.32
55347;BME280;41218;55.700;38.270;2023-10-08T11:24:54;96728.81;;;5.32;64.28
55347;BME280;41218;55.700;38.270;2023-10-08T11:29:55;96719.44;;;5.30;64.46
55347;BME280;41218;55.700;38.270;2023-10-08T11:35:00;96732.81;;;5.24;65.03
55347;BME280;41218;55.700;38.270;2023-10-08T11:40:08;96741.44;;;5.22;64.81
55347;BME280;41218;55.700;38.270;2023-10-08T11:45:17;96722.41;;;5.08;65.35
55347;BME280;41218;55.700;38.270;2023-10-08T11:50:18;96749.44;;;5.02;65.34
55347;BME280;41218;55.700;38.270;2023-10-08T11:55:21;96734.75;;;4.89;65.85
55347;BME280;41218;55.700;38.270;2023-10-08T12:00:22;96741.06;;;4.82;66.42
55347;BME280;41218;55.700;38.270;2023-10-08T12:05:25;96748.50;;;4.78;66.89
55347;BME280;41218;55.700;38.270;2023-10-08T12:10:26;96748.50;;;4.78;66.71
55347;BME280;41218;55.700;38.270;2023-10-08T12:15:27;96746.59;;;4.75;66.68
55347;BME280;41218;55.700;38.270;2023-10-08T12:20:35;96745.81;;;4.75;66.98
55347;BME280;41218;55.700;38.270;2023-10-08T12:25:37;96747.34;;;4.79;67.31
55347;BME280;41218;55.700;38.270;2023-10-08T12:30:38;96749.31;;;4.79;66.98
55347;BME280;41218;55.700;38.270;2023-10-08T12:35:43;96757.16;;;4.73;67.37
55347;BME280;41218;55.700;38.270;2023-10-08T12:40:44;96754.06;;;4.71;67.57
55347;BME280;41218;55.700;38.270;2023-10-08T12:45:49;96747.84;;;4.67;67.83
55347;BME280;41218;55.700;38.270;2023-10-08T12:50:52;96747.09;;;4.63;67.67
55347;BME280;41218;55.700;38.270;2023-10-08T12:55:54;96758.44;;;4.58;67.74
55347;BME280;41218;55.700;38.270;2023-10-08T13:00:55;96762.78;;;4.52;68.01
55347;BME280;41218;55.700;38.270;2023-10-08T13:06:03;96765.13;;;4.53;68.19
55347;BME280;41218;55.700;38.270;2023-10-08T13:11:04;96764.38;;;4.53;67.80
55347;BME280;41218;55.700;38.270;2023-10-08T13:16:04;96762.84;;;4.48;68.48
55347;BME280;41218;55.700;38.270;2023-10-08T13:21:07;96746.84;;;4.43;68.34
55347;BME280;41218;55.700;38.270;2023-10-08T13:26:09;96744.94;;;4.36;68.28
55347;BME280;41218;55.700;38.270;2023-10-08T13:31:17;96754.66;;;4.45;68.04
55347;BME280;41218;55.700;38.270;2023-10-08T13:36:19;96745.31;;;4.38;68.54
55347;BME280;41218;55.700;38.270;2023-10-08T13:41:19;96748.47;;;4.37;68.75
55347;BME280;41218;55.700;38.270;2023-10-08T13:46:20;96751.19;;;4.37;68.72
55347;BME280;41218;55.700;38.270;2023-10-08T13:51:25;96753.56;;;4.35;68.47
55347;BME280;41218;55.700;38.270;2023-10-08T13:56:27;96741.91;;;4.24;68.56
55347;BME280;41218;55.700;38.270;2023-10-08T14:01:33;96760.66;;;4.25;68.97
55347;BME280;41218;55.700;38.270;2023-10-08T14:06:36;96753.28;;;4.18;69.18
55347;BME280;41218;55.700;38.270;2023-10-08T14:11:38;96751.31;;;4.15;69.05
55347;BME280;41218;55.700;38.270;2023-10-08T14:16:39;96751.72;;;4.17;69.32
55347;BME280;41218;55.700;38.270;2023-10-08T14:21:43;96749.41;;;4.16;69.08
55347;BME280;41218;55.700;38.270;2023-10-08T14:26:54;96757.63;;;4.12;68.95
55347;BME280;41218;55.700;38.270;2023-10-08T14:31:57;96752.97;;;4.06;69.28
55347;BME280;41218;55.700;38.270;2023-10-08T14:37:00;96755.72;;;4.02;69.25
55347;BME280;41218;55.700;38.270;2023-10-08T14:42:19;96763.53;;;4.04;69.49
55347;BME280;41218;55.700;38.270;2023-10-08T14:47:38;96765.09;;;4.01;69.20
55347;BME280;41218;55.700;38.270;2023-10-08T14:52:38;96762.00;;;3.95;69.47
55347;BME280;41218;55.700;38.270;2023-10-08T14:57:40;96763.16;;;3.98;69.14
55347;BME280;41218;55.700;38.270;2023-10-08T15:02:42;96756.97;;;3.90;68.86
55347;BME280;41218;55.700;38.270;2023-10-08T15:07:43;96760.53;;;3.80;69.48
55347;BME280;41218;55.700;38.270;2023-10-08T15:12:43;96753.53;;;3.68;69.79
55347;BME280;41218;55.700;38.270;2023-10-08T15:17:46;96765.22;;;3.72;69.77
55347;BME280;41218;55.700;38.270;2023-10-08T15:22:48;96752.41;;;3.66;69.95
55347;BME280;41218;55.700;38.270;2023-10-08T15:27:48;96755.94;;;3.59;69.94
55347;BME280;41218;55.700;38.270;2023-10-08T15:32:49;96736.84;;;3.45;69.77
55347;BME280;41218;55.700;38.270;2023-10-08T15:37:51;96744.66;;;3.42;70.14
55347;BME280;41218;55.700;38.270;2023-10-08T15:42:54;96745.47;;;3.43;70.09
55347;BME280;41218;55.700;38.270;2023-10-08T15:47:55;96754.44;;;3.47;70.25
55347;BME280;41218;55.700;38.270;2023-10-08T15:52:58;96739.22;;;3.42;70.00
55347;BME280;41218;55.700;38.270;2023-10-08T15:58:00;96738.09;;;3.26;70.27
55347;BME280;41218;55.700;38.270;2023-10-08T16:03:01;96726.81;;;3.20;70.77
55347;BME280;41218;55.700;38.270;2023-10-08T16:08:06;96773.53;;;3.44;70.85
55347;BME280;41218;55.700;38.270;2023-10-08T16:13:21;96775.50;;;3.39;70.26
55347;BME280;41218;55.700;38.270;2023-10-08T16:18:23;96764.59;;;3.32;70.42
55347;BME280;41218;55.700;38.270;2023-10-08T16:23:23;96775.13;;;3.34;70.90
55347;BME280;41218;55.700;38.270;2023-10-08T16:28:28;96736.97;;;3.16;70.66
55347;BME280;41218;55.700;38.270;2023-10-08T16:33:35;96737.38;;;3.14;70.64
55347;BME280;41218;55.700;38.270;2023-10-08T16:38:45;96768.91;;;3.33;70.91
55347;BME280;41218;55.700;38.270;2023-10-08T16:44:11;96782.88;;;3.46;71.10
55347;BME280;41218;55.700;38.270;2023-10-08T16:49:17;96780.19;;;3.39;70.95
55347;BME280;41218;55.700;38.270;2023-10-08T16:54:32;96777.09;;;3.33;70.87
55347;BME280;41218;55.700;38.270;2023-10-08T16:59:59;96782.13;;;3.38;71.30
55347;BME280;41218;55.700;38.270;2023-10-08T17:05:21;96773.59;;;3.33;70.87
55347;BME280;41218;55.700;38.270;2023-10-08T17:10:24;96760.38;;;3.17;71.12
55347;BME280;41218;55.700;38.270;2023-10-08T17:15:32;96758.44;;;3.10;71.22
55347;BME280;41218;55.700;38.270;2023-10-08T17:20:33;96761.13;;;3.14;71.27
55347;BME280;41218;55.700;38.270;2023-10-08T17:25:35;96784.91;;;3.28;71.09
55347;BME280;41218;55.700;38.270;2023-10-08T17:30:35;96792.69;;;3.29;70.73
55347;BME280;41218;55.700;38.270;2023-10-08T17:35:40;96790.34;;;3.28;71.36
55347;BME280;41218;55.700;38.270;2023-10-08T17:40:42;96767.78;;;3.16;71.37
55347;BME280;41218;55.700;38.270;2023-10-08T17:45:43;96797.34;;;3.36;71.54
55347;BME280;41218;55.700;38.270;2023-10-08T17:50:46;96795.44;;;3.33;71.17
55347;BME280;41218;55.700;38.270;2023-10-08T17:55:47;96794.66;;;3.29;71.40
55347;BME280;41218;55.700;38.270;2023-10-08T18:00:51;96796.97;;;3.30;71.39
55347;BME280;41218;55.700;38.270;2023-10-08T18:05:51;96791.53;;;3.23;71.29
55347;BME280;41218;55.700;38.270;2023-10-08T18:10:54;96809.06;;;3.33;71.48
55347;BME280;41218;55.700;38.270;2023-10-08T18:15:57;96814.16;;;3.27;71.54
55347;BME280;41218;55.700;38.270;2023-10-08T18:20:58;96784.94;;;3.10;71.40
55347;BME280;41218;55.700;38.270;2023-10-08T18:25:59;96810.66;;;3.27;71.52
55347;BME280;41218;55.700;38.270;2023-10-08T18:31:04;96790.00;;;3.08;71.41
55347;BME280;41218;55.700;38.270;2023-10-08T18:36:22;96791.56;;;3.09;71.53
55347;BME280;41218;55.700;38.270;2023-10-08T18:41:26;96826.25;;;3.19;71.95
55347;BME280;41218;55.700;38.270;2023-10-08T18:46:30;96794.72;;;2.96;71.76
55347;BME280;41218;55.700;38.270;2023-10-08T18:51:33;96821.19;;;3.17;71.64
55347;BME280;41218;55.700;38.270;2023-10-08T18:56:35;96820.41;;;3.10;71.65
55347;BME280;41218;55.700;38.270;2023-10-08T19:01:36;96802.91;;;2.96;71.59
55347;BME280;41218;55.700;38.270;2023-10-08T19:06:39;96824.31;;;3.05;71.54
55347;BME280;41218;55.700;38.270;2023-10-08T19:11:44;96834.06;;;3.06;72.01
55347;BME280;41218;55.700;38.270;2023-10-08T19:16:45;96835.22;;;3.01;71.54
55347;BME280;41218;55.700;38.270;2023-10-08T19:21:49;96835.25;;;2.94;71.67
55347;BME280;41218;55.700;38.270;2023-10-08T19:26:50;96844.59;;;2.90;71.78
55347;BME280;41218;55.700;38.270;2023-10-08T19:31:54;96846.94;;;2.95;71.73
55347;BME280;41218;55.700;38.270;2023-10-08T19:37:00;96852.78;;;2.93;71.82
55347;BME280;41218;55.700;38.270;2023-10-08T19:42:04;96848.50;;;2.89;71.76
55347;BME280;41218;55.700;38.270;2023-10-08T19:47:09;96871.50;;;2.95;72.34
55347;BME280;41218;55.700;38.270;2023-10-08T19:52:50;96866.03;;;2.88;72.03
55347;BME280;41218;55.700;38.270;2023-10-08T19:58:12;96867.97;;;2.87;71.95
55347;BME280;41218;55.700;38.270;2023-10-08T20:03:25;96871.88;;;2.83;71.96
55347;BME280;41218;55.700;38.270;2023-10-08T20:08:44;96866.41;;;2.68;71.94
55347;BME280;41218;55.700;38.270;2023-10-08T20:13:45;96875.38;;;2.69;71.61
55347;BME280;41218;55.700;38.270;2023-10-08T20:18:53;96893.28;;;2.73;72.06
55347;BME280;41218;55.700;38.270;2023-10-08T20:24:00;96890.19;;;2.68;72.39
55347;BME280;41218;55.700;38.270;2023-10-08T20:29:09;96870.66;;;2.51;72.27
55347;BME280;41218;55.700;38.270;2023-10-08T20:34:14;96888.22;;;2.54;71.92
55347;BME280;41218;55.700;38.270;2023-10-08T20:39:15;96910.81;;;2.65;72.27
55347;BME280;41218;55.700;38.270;2023-10-08T20:44:20;96925.25;;;2.73;72.43
55347;BME280;41218;55.700;38.270;2023-10-08T20:49:23;96920.97;;;2.68;72.50
55347;BME280;41218;55.700;38.270;2023-10-08T20:54:27;96930.31;;;2.71;72.52
55347;BME280;41218;55.700;38.270;2023-10-08T20:59:33;96913.94;;;2.60;72.52
55347;BME280;41218;55.700;38.270;2023-10-08T21:04:37;96923.63;;;2.57;72.31
55347;BME280;41218;55.700;38.270;2023-10-08T21:09:38;96904.16;;;2.48;72.65
55347;BME280;41218;55.700;38.270;2023-10-08T21:14:38;96938.88;;;2.66;72.62
55347;BME280;41218;55.700;38.270;2023-10-08T21:19:39;96924.81;;;2.53;72.65
55347;BME280;41218;55.700;38.270;2023-10-08T21:24:40;96921.69;;;2.51;72.72
55347;BME280;41218;55.700;38.270;2023-10-08T21:29:41;96963.03;;;2.67;72.83
55347;BME280;41218;55.700;38.270;2023-10-08T21:34:45;96978.63;;;2.70;72.71
55347;BME280;41218;55.700;38.270;2023-10-08T21:39:45;96985.22;;;2.69;72.61
55347;BME280;41218;55.700;38.270;2023-10-08T21:44:47;96987.56;;;2.64;72.79
55347;BME280;41218;55.700;38.270;2023-10-08T21:49:48;96977.38;;;2.53;73.05
55347;BME280;41218;55.700;38.270;2023-10-08T21:54:53;96998.06;;;2.58;72.90
55347;BME280;41218;55.700;38.270;2023-10-08T21:59:54;96993.38;;;2.58;73.04
55347;BME280;41218;55.700;38.270;2023-10-08T22:04:55;97008.16;;;2.57;73.20
55347;BME280;41218;55.700;38.270;2023-10-08T22:09:55;97016.00;;;2.63;72.99
55347;BME280;41218;55.700;38.270;2023-10-08T22:14:56;97024.56;;;2.61;73.12
55347;BME280;41218;55.700;38.270;2023-10-08T22:19:57;97021.41;;;2.55;73.22
55347;BME280;41218;55.700;38.270;2023-10-08T22:24:58;97038.56;;;2.59;73.34
55347;BME280;41218;55.700;38.270;2023-10-08T22:29:59;97039.00;;;2.65;73.19
55347;BME280;41218;55.700;38.270;2023-10-08T22:35:04;97048.75;;;2.66;73.16
55347;BME280;41218;55.700;38.270;2023-10-08T22:40:14;97060.81;;;2.69;73.27
55347;BME280;41218;55.700;38.270;2023-10-08T22:45:16;97058.06;;;2.65;73.26
55347;BME280;41218;55.700;38.270;2023-10-08T22:50:17;97069.38;;;2.67;73.13
55347;BME280;41218;55.700;38.270;2023-10-08T22:55:36;97071.34;;;2.67;73.19
55347;BME280;41218;55.700;38.270;2023-10-08T23:00:37;97058.84;;;2.58;73.23
55347;BME280;41218;55.700;38.270;2023-10-08T23:05:41;97081.84;;;2.65;73.50
55347;BME280;41218;55.700;38.270;2023-10-08T23:10:44;97094.72;;;2.68;73.40
55347;BME280;41218;55.700;38.270;2023-10-08T23:15:45;97092.78;;;2.68;73.12
55347;BME280;41218;55.700;38.270;2023-10-08T23:20:50;97100.19;;;2.68;73.51
55347;BME280;41218;55.700;38.270;2023-10-08T23:25:51;97092.72;;;2.61;73.51
55347;BME280;41218;55.700;38.270;2023-10-08T23:30:53;97119.69;;;2.70;73.37
55347;BME280;41218;55.700;38.270;2023-10-08T23:35:53;97120.81;;;2.69;73.08
55347;BME280;41218;55.700;38.270;2023-10-08T23:40:56;97115.31;;;2.58;73.25
55347;BME280;41218;55.700;38.270;2023-10-08T23:45:58;97136.38;;;2.61;73.35
55347;BME280;41218;55.700;38.270;2023-10-08T23:51:00;97121.09;;;2.46;73.53
55347;BME280;41218;55.700;38.270;2023-10-08T23:56:03;97147.25;;;2.54;73.67
